MDT,Max TemperatureF,Mean TemperatureF,Min TemperatureF,Max Dew PointF,MeanDew PointF,Min DewpointF,Max Humidity, Mean Humidity, Min Humidity, Max Sea Level PressureIn, Mean Sea Level PressureIn, Min Sea Level PressureIn, Max VisibilityMiles, Mean VisibilityMiles, Min VisibilityMiles, Max Wind SpeedMPH, Mean Wind SpeedMPH, Max Gust SpeedMPH,PrecipitationIn, CloudCover, Events, WindDirDegrees
2013-9-1,84,68,51,48,44,41,67,47,26,30.11,30.06,30.01,10,10,10,14,4,14,0.00,0,,325
2013-9-2,93,72,50,58,51,47,89,56,22,30.05,29.96,29.87,10,10,10,17,7,23,0.00,0,,143
2013-9-3,94,80,66,60,58,55,73,52,30,29.96,29.89,29.83,10,10,10,20,8,24,0.00,1,,32
2013-9-4,93,78,63,62,60,58,87,61,34,30.09,30.01,29.95,10,10,10,13,8,20,0.00,0,Thunderstorm,46
2013-9-5,94,80,65,63,61,58,93,63,33,30.06,29.98,29.90,10,10,10,20,8,26,0.00,0,,125
2013-9-6,91,77,63,64,61,57,84,61,38,30.01,29.90,29.86,10,10,10,28,7,33,0.00,0,Thunderstorm,344
2013-9-7,97,81,65,65,61,55,81,54,26,29.97,29.92,29.86,10,10,10,22,10,28,0.00,0,,143
2013-9-8,85,74,63,64,62,60,93,71,48,30.02,29.89,29.75,10,9,2,43,8,52,0.42,5,Rain-Thunderstorm,26
2013-9-9,78,69,59,63,58,53,93,71,49,29.96,29.85,29.71,10,10,2,23,8,31,0.11,2,Rain,321
2013-9-10,78,67,55,57,52,49,90,65,40,30.13,30.05,29.95,10,10,10,18,6,23,0.00,1,,323
2013-9-11,84,69,54,54,49,43,93,59,24,30.21,30.17,30.12,10,10,10,12,5,15,0.00,0,,333
2013-9-12,81,66,51,52,48,46,89,60,30,30.32,30.25,30.19,10,10,10,15,8,20,0.00,0,,106
2013-9-13,71,61,51,59,53,45,90,73,55,30.18,30.03,29.86,10,10,3,25,11,31,T,6,Rain,177
2013-9-14,82,70,57,61,58,55,97,70,42,30.05,29.84,29.75,10,9,2,32,13,40,0.01,3,Rain,18
2013-9-15,71,61,50,56,53,47,100,72,44,30.30,30.21,30.03,10,9,3,17,7,23,0.01,7,Rain,14
2013-9-16,70,59,48,53,51,47,100,79,58,30.25,30.08,29.90,10,10,9,30,16,37,0.00,4,,171
2013-9-17,92,71,49,55,50,45,100,60,20,29.87,29.72,29.59,10,9,5,21,6,26,0.00,0,,141
2013-9-18,93,75,56,53,48,38,75,45,15,29.79,29.62,29.54,10,10,10,36,13,48,0.00,0,,316
2013-9-19,65,52,38,44,39,36,82,60,37,30.17,30.03,29.80,10,10,10,30,16,47,0.00,1,,341
2013-9-20,73,54,34,38,35,32,96,62,27,30.18,30.08,29.96,10,10,10,10,4,16,0.00,0,,144
2013-9-21,92,66,39,38,33,23,73,41,8,29.94,29.72,29.58,10,10,10,14,6,18,0.00,0,,139
2013-9-22,93,71,48,57,43,35,93,55,16,29.59,29.49,29.39,10,10,6,26,8,32,0.19,2,Rain-Thunderstorm,183
2013-9-23,61,53,45,56,53,46,100,88,75,29.96,29.75,29.40,10,6,0,37,13,47,0.34,6,Fog-Rain,9
2013-9-24,76,59,41,47,42,38,100,63,25,30.02,29.92,29.75,10,8,0,24,10,33,0.00,0,Fog,186
2013-9-25,81,67,53,50,45,41,83,56,28,29.72,29.55,29.39,10,10,10,30,16,38,0.01,1,Rain-Thunderstorm,166
2013-9-26,67,58,48,48,43,36,93,69,45,29.89,29.73,29.51,10,10,10,30,16,37,0.00,2,,352
2013-9-27,49,45,40,39,38,36,89,75,61,30.00,29.91,29.85,10,10,7,31,15,41,0.09,8,Rain,338
2013-9-28,70,52,34,38,33,29,92,57,22,29.99,29.95,29.90,10,10,10,24,7,31,0.00,2,,262
2013-9-29,81,59,37,41,35,31,85,51,17,29.90,29.73,29.62,10,10,10,22,6,29,0.00,0,,225
2013-9-30,87,67,47,46,37,28,67,41,15,29.79,29.62,29.44,10,10,10,47,12,63,0.00,0,,286